sensor_id;sensor_type;location;lat;lon;timestamp;P1;durP1;ratioP1;P2;durP2;ratioP2
21621;SDS011;10973;46.706;12.340;2023-12-22T00:00:04;2.10;;;1.97;;
21621;SDS011;10973;46.706;12.340;2023-12-22T00:02:32;1.90;;;1.80;;
21621;SDS011;10973;46.706;12.340;2023-12-22T00:05:00;1.90;;;1.80;;
21621;SDS011;10973;46.706;12.340;2023-12-22T00:07:28;2.10;;;2.00;;
21621;SDS011;10973;46.706;12.340;2023-12-22T00:09:56;1.93;;;1.83;;
21621;SDS011;10973;46.706;12.340;2023-12-22T00:12:26;1.80;;;1.70;;
21621;SDS011;10973;46.706;12.340;2023-12-22T00:14:53;2.13;;;2.03;;
21621;SDS011;10973;46.706;12.340;2023-12-22T00:17:21;1.93;;;1.83;;
21621;SDS011;10973;46.706;12.340;2023-12-22T00:19:49;1.90;;;1.80;;
21621;SDS011;10973;46.706;12.340;2023-12-22T00:22:17;1.80;;;1.70;;
21621;SDS011;10973;46.706;12.340;2023-12-22T00:24:45;1.97;;;1.87;;
21621;SDS011;10973;46.706;12.340;2023-12-22T00:27:12;2.77;;;2.57;;
21621;SDS011;10973;46.706;12.340;2023-12-22T00:29:40;1.67;;;1.60;;
21621;SDS011;10973;46.706;12.340;2023-12-22T00:32:08;1.60;;;1.50;;
21621;SDS011;10973;46.706;12.340;2023-12-22T00:34:37;1.40;;;1.40;;
21621;SDS011;10973;46.706;12.340;2023-12-22T00:37:04;1.50;;;1.50;;
21621;SDS011;10973;46.706;12.340;2023-12-22T00:39:32;1.70;;;1.60;;
21621;SDS011;10973;46.706;12.340;2023-12-22T00:41:59;1.43;;;1.43;;
21621;SDS011;10973;46.706;12.340;2023-12-22T00:44:27;1.57;;;1.57;;
21621;SDS011;10973;46.706;12.340;2023-12-22T00:46:55;1.53;;;1.53;;
21621;SDS011;10973;46.706;12.340;2023-12-22T00:49:23;1.77;;;1.67;;
21621;SDS011;10973;46.706;12.340;2023-12-22T00:51:51;1.83;;;1.73;;
21621;SDS011;10973;46.706;12.340;2023-12-22T00:54:18;1.53;;;1.53;;
21621;SDS011;10973;46.706;12.340;2023-12-22T00:56:46;1.70;;;1.60;;
21621;SDS011;10973;46.706;12.340;2023-12-22T00:59:14;1.50;;;1.50;;
21621;SDS011;10973;46.706;12.340;2023-12-22T01:01:42;1.67;;;1.60;;
21621;SDS011;10973;46.706;12.340;2023-12-22T01:04:10;1.50;;;1.50;;
21621;SDS011;10973;46.706;12.340;2023-12-22T01:06:38;1.20;;;1.20;;
21621;SDS011;10973;46.706;12.340;2023-12-22T01:09:06;1.50;;;1.50;;
21621;SDS011;10973;46.706;12.340;2023-12-22T01:11:34;1.50;;;1.50;;
21621;SDS011;10973;46.706;12.340;2023-12-22T01:14:02;1.80;;;1.70;;
21621;SDS011;10973;46.706;12.340;2023-12-22T01:16:29;2.00;;;1.90;;
21621;SDS011;10973;46.706;12.340;2023-12-22T01:18:57;1.43;;;1.43;;
21621;SDS011;10973;46.706;12.340;2023-12-22T01:21:25;1.53;;;1.43;;
21621;SDS011;10973;46.706;12.340;2023-12-22T01:23:53;1.00;;;1.00;;
21621;SDS011;10973;46.706;12.340;2023-12-22T01:26:21;1.30;;;1.30;;
21621;SDS011;10973;46.706;12.340;2023-12-22T01:28:48;1.00;;;1.00;;
21621;SDS011;10973;46.706;12.340;2023-12-22T01:31:16;0.90;;;0.90;;
21621;SDS011;10973;46.706;12.340;2023-12-22T01:33:44;1.10;;;1.10;;
21621;SDS011;10973;46.706;12.340;2023-12-22T01:36:11;1.20;;;1.20;;
21621;SDS011;10973;46.706;12.340;2023-12-22T01:38:39;1.00;;;1.00;;
21621;SDS011;10973;46.706;12.340;2023-12-22T01:41:07;1.10;;;1.10;;
21621;SDS011;10973;46.706;12.340;2023-12-22T01:43:34;1.20;;;1.20;;
21621;SDS011;10973;46.706;12.340;2023-12-22T01:46:02;1.20;;;1.20;;
21621;SDS011;10973;46.706;12.340;2023-12-22T01:48:30;1.20;;;1.20;;
21621;SDS011;10973;46.706;12.340;2023-12-22T01:50:59;1.10;;;1.10;;
21621;SDS011;10973;46.706;12.340;2023-12-22T01:53:28;1.17;;;1.17;;
21621;SDS011;10973;46.706;12.340;2023-12-22T01:55:58;1.00;;;1.00;;
21621;SDS011;10973;46.706;12.340;2023-12-22T01:58:28;0.80;;;0.80;;
21621;SDS011;10973;46.706;12.340;2023-12-22T02:01:01;1.10;;;1.10;;
21621;SDS011;10973;46.706;12.340;2023-12-22T02:03:31;1.00;;;0.90;;
21621;SDS011;10973;46.706;12.340;2023-12-22T02:05:59;0.90;;;0.90;;
21621;SDS011;10973;46.706;12.340;2023-12-22T02:08:26;0.83;;;0.83;;
21621;SDS011;10973;46.706;12.340;2023-12-22T02:10:59;1.10;;;1.10;;
21621;SDS011;10973;46.706;12.340;2023-12-22T02:13:27;1.70;;;1.00;;
21621;SDS011;10973;46.706;12.340;2023-12-22T02:15:58;0.90;;;0.90;;
21621;SDS011;10973;46.706;12.340;2023-12-22T02:18:38;1.10;;;1.10;;
21621;SDS011;10973;46.706;12.340;2023-12-22T02:21:10;1.00;;;1.00;;
21621;SDS011;10973;46.706;12.340;2023-12-22T02:23:38;1.00;;;1.00;;
21621;SDS011;10973;46.706;12.340;2023-12-22T02:26:06;0.97;;;0.97;;
21621;SDS011;10973;46.706;12.340;2023-12-22T02:28:48;1.00;;;1.00;;
21621;SDS011;10973;46.706;12.340;2023-12-22T02:31:22;0.80;;;0.80;;
21621;SDS011;10973;46.706;12.340;2023-12-22T02:34:12;1.20;;;0.90;;
21621;SDS011;10973;46.706;12.340;2023-12-22T02:36:46;0.90;;;0.90;;
21621;SDS011;10973;46.706;12.340;2023-12-22T02:39:18;0.80;;;0.80;;
21621;SDS011;10973;46.706;12.340;2023-12-22T02:41:47;1.10;;;1.10;;
21621;SDS011;10973;46.706;12.340;2023-12-22T02:44:16;0.90;;;0.90;;
21621;SDS011;10973;46.706;12.340;2023-12-22T02:46:44;1.10;;;1.00;;
21621;SDS011;10973;46.706;12.340;2023-12-22T02:49:12;0.80;;;0.80;;
21621;SDS011;10973;46.706;12.340;2023-12-22T02:51:39;0.90;;;0.90;;
21621;SDS011;10973;46.706;12.340;2023-12-22T02:54:07;0.93;;;0.80;;
21621;SDS011;10973;46.706;12.340;2023-12-22T02:56:35;0.90;;;0.90;;
21621;SDS011;10973;46.706;12.340;2023-12-22T02:59:03;0.80;;;0.80;;
21621;SDS011;10973;46.706;12.340;2023-12-22T03:01:30;1.00;;;1.00;;
21621;SDS011;10973;46.706;12.340;2023-12-22T03:03:58;0.90;;;0.90;;
21621;SDS011;10973;46.706;12.340;2023-12-22T03:06:26;0.97;;;0.97;;
21621;SDS011;10973;46.706;12.340;2023-12-22T03:08:53;0.90;;;0.90;;
21621;SDS011;10973;46.706;12.340;2023-12-22T03:11:21;0.93;;;0.93;;
21621;SDS011;10973;46.706;12.340;2023-12-22T03:13:48;0.90;;;0.90;;
21621;SDS011;10973;46.706;12.340;2023-12-22T03:16:16;0.90;;;0.90;;
21621;SDS011;10973;46.706;12.340;2023-12-22T03:18:44;0.90;;;0.90;;
21621;SDS011;10973;46.706;12.340;2023-12-22T03:21:18;0.80;;;0.80;;
21621;SDS011;10973;46.706;12.340;2023-12-22T03:23:46;0.90;;;0.90;;
21621;SDS011;10973;46.706;12.340;2023-12-22T03:26:14;0.90;;;0.90;;
21621;SDS011;10973;46.706;12.340;2023-12-22T03:28:42;1.00;;;1.00;;
21621;SDS011;10973;46.706;12.340;2023-12-22T03:31:09;1.60;;;1.07;;
21621;SDS011;10973;46.706;12.340;2023-12-22T03:33:38;1.03;;;1.03;;
21621;SDS011;10973;46.706;12.340;2023-12-22T03:36:06;1.17;;;1.03;;
21621;SDS011;10973;46.706;12.340;2023-12-22T03:38:34;1.00;;;1.00;;
21621;SDS011;10973;46.706;12.340;2023-12-22T03:41:02;0.90;;;0.90;;
21621;SDS011;10973;46.706;12.340;2023-12-22T03:43:30;3.10;;;1.20;;
21621;SDS011;10973;46.706;12.340;2023-12-22T03:45:57;1.00;;;1.00;;
21621;SDS011;10973;46.706;12.340;2023-12-22T03:48:25;0.90;;;0.90;;
21621;SDS011;10973;46.706;12.340;2023-12-22T03:50:53;1.00;;;0.90;;
21621;SDS011;10973;46.706;12.340;2023-12-22T03:53:20;1.00;;;1.00;;
21621;SDS011;10973;46.706;12.340;2023-12-22T03:55:48;1.20;;;1.20;;
21621;SDS011;10973;46.706;12.340;2023-12-22T03:58:16;1.00;;;1.00;;
21621;SDS011;10973;46.706;12.340;2023-12-22T04:00:43;1.40;;;1.30;;
21621;SDS011;10973;46.706;12.340;2023-12-22T04:03:11;1.00;;;1.00;;
21621;SDS011;10973;46.706;12.340;2023-12-22T04:05:39;2.10;;;1.50;;
21621;SDS011;10973;46.706;12.340;2023-12-22T04:08:07;0.97;;;0.97;;
21621;SDS011;10973;46.706;12.340;2023-12-22T04:10:35;1.03;;;1.03;;
21621;SDS011;10973;46.706;12.340;2023-12-22T04:13:03;1.10;;;1.10;;
21621;SDS011;10973;46.706;12.340;2023-12-22T04:15:30;1.10;;;1.10;;
21621;SDS011;10973;46.706;12.340;2023-12-22T04:17:58;1.23;;;1.10;;
21621;SDS011;10973;46.706;12.340;2023-12-22T04:20:26;2.00;;;1.90;;
21621;SDS011;10973;46.706;12.340;2023-12-22T04:22:54;1.47;;;1.20;;
21621;SDS011;10973;46.706;12.340;2023-12-22T04:25:22;1.30;;;1.30;;
21621;SDS011;10973;46.706;12.340;2023-12-22T04:27:49;1.10;;;1.07;;
21621;SDS011;10973;46.706;12.340;2023-12-22T04:30:17;1.10;;;1.10;;
21621;SDS011;10973;46.706;12.340;2023-12-22T04:32:45;1.00;;;1.00;;
21621;SDS011;10973;46.706;12.340;2023-12-22T04:35:13;1.00;;;1.00;;
21621;SDS011;10973;46.706;12.340;2023-12-22T04:37:41;1.40;;;1.40;;
21621;SDS011;10973;46.706;12.340;2023-12-22T04:40:09;1.13;;;1.13;;
21621;SDS011;10973;46.706;12.340;2023-12-22T04:42:37;1.00;;;1.00;;
21621;SDS011;10973;46.706;12.340;2023-12-22T04:45:05;0.90;;;0.90;;
21621;SDS011;10973;46.706;12.340;2023-12-22T04:47:33;1.03;;;0.70;;
21621;SDS011;10973;46.706;12.340;2023-12-22T04:50:01;1.00;;;1.00;;
21621;SDS011;10973;46.706;12.340;2023-12-22T04:52:29;1.00;;;1.00;;
21621;SDS011;10973;46.706;12.340;2023-12-22T04:54:57;1.83;;;1.00;;
21621;SDS011;10973;46.706;12.340;2023-12-22T04:57:25;1.20;;;1.20;;
21621;SDS011;10973;46.706;12.340;2023-12-22T04:59:53;1.00;;;1.00;;
21621;SDS011;10973;46.706;12.340;2023-12-22T05:02:20;1.10;;;1.10;;
21621;SDS011;10973;46.706;12.340;2023-12-22T05:04:48;1.10;;;1.10;;
21621;SDS011;10973;46.706;12.340;2023-12-22T05:07:16;1.57;;;1.10;;
21621;SDS011;10973;46.706;12.340;2023-12-22T05:09:44;1.03;;;1.03;;
21621;SDS011;10973;46.706;12.340;2023-12-22T05:12:11;1.00;;;1.00;;
21621;SDS011;10973;46.706;12.340;2023-12-22T05:14:40;1.37;;;1.27;;
21621;SDS011;10973;46.706;12.340;2023-12-22T05:17:07;1.10;;;1.10;;
21621;SDS011;10973;46.706;12.340;2023-12-22T05:19:35;1.10;;;1.10;;
21621;SDS011;10973;46.706;12.340;2023-12-22T05:22:02;1.00;;;1.00;;
21621;SDS011;10973;46.706;12.340;2023-12-22T05:24:30;0.97;;;0.90;;
21621;SDS011;10973;46.706;12.340;2023-12-22T05:26:58;1.20;;;1.20;;
21621;SDS011;10973;46.706;12.340;2023-12-22T05:29:26;1.20;;;1.10;;
21621;SDS011;10973;46.706;12.340;2023-12-22T05:31:54;0.93;;;0.93;;
21621;SDS011;10973;46.706;12.340;2023-12-22T05:34:22;1.00;;;1.00;;
21621;SDS011;10973;46.706;12.340;2023-12-22T05:36:49;1.40;;;1.00;;
21621;SDS011;10973;46.706;12.340;2023-12-22T05:39:17;1.30;;;0.97;;
21621;SDS011;10973;46.706;12.340;2023-12-22T05:41:45;1.20;;;1.03;;
21621;SDS011;10973;46.706;12.340;2023-12-22T05:44:13;0.90;;;0.90;;
21621;SDS011;10973;46.706;12.340;2023-12-22T05:46:41;1.23;;;1.10;;
21621;SDS011;10973;46.706;12.340;2023-12-22T05:49:09;1.10;;;1.10;;
21621;SDS011;10973;46.706;12.340;2023-12-22T05:51:37;1.17;;;1.17;;
21621;SDS011;10973;46.706;12.340;2023-12-22T05:54:08;1.00;;;1.00;;
21621;SDS011;10973;46.706;12.340;2023-12-22T05:56:36;0.80;;;0.80;;
21621;SDS011;10973;46.706;12.340;2023-12-22T05:59:04;4.67;;;1.20;;
21621;SDS011;10973;46.706;12.340;2023-12-22T06:01:32;1.00;;;1.00;;
21621;SDS011;10973;46.706;12.340;2023-12-22T06:04:00;0.90;;;0.90;;
21621;SDS011;10973;46.706;12.340;2023-12-22T06:06:27;1.00;;;1.00;;
21621;SDS011;10973;46.706;12.340;2023-12-22T06:08:55;0.70;;;0.70;;
21621;SDS011;10973;46.706;12.340;2023-12-22T06:11:23;0.90;;;0.90;;
21621;SDS011;10973;46.706;12.340;2023-12-22T06:13:51;1.20;;;0.80;;
21621;SDS011;10973;46.706;12.340;2023-12-22T06:16:19;1.07;;;0.70;;
21621;SDS011;10973;46.706;12.340;2023-12-22T06:18:47;1.00;;;1.00;;
21621;SDS011;10973;46.706;12.340;2023-12-22T06:21:15;0.80;;;0.80;;
21621;SDS011;10973;46.706;12.340;2023-12-22T06:23:42;0.90;;;0.90;;
21621;SDS011;10973;46.706;12.340;2023-12-22T06:26:10;1.30;;;1.20;;
21621;SDS011;10973;46.706;12.340;2023-12-22T06:28:39;1.70;;;1.00;;
21621;SDS011;10973;46.706;12.340;2023-12-22T06:31:08;0.90;;;0.90;;
21621;SDS011;10973;46.706;12.340;2023-12-22T06:33:44;2.80;;;0.87;;
21621;SDS011;10973;46.706;12.340;2023-12-22T06:38:52;0.90;;;0.90;;
21621;SDS011;10973;46.706;12.340;2023-12-22T06:41:27;3.03;;;1.00;;
21621;SDS011;10973;46.706;12.340;2023-12-22T06:43:57;0.80;;;0.80;;
21621;SDS011;10973;46.706;12.340;2023-12-22T06:46:25;0.90;;;0.83;;
21621;SDS011;10973;46.706;12.340;2023-12-22T06:48:55;1.03;;;1.03;;
21621;SDS011;10973;46.706;12.340;2023-12-22T06:51:25;4.30;;;3.10;;
21621;SDS011;10973;46.706;12.340;2023-12-22T06:53:57;12.13;;;10.47;;
21621;SDS011;10973;46.706;12.340;2023-12-22T06:56:25;5.17;;;4.77;;
21621;SDS011;10973;46.706;12.340;2023-12-22T06:58:56;3.50;;;3.20;;
21621;SDS011;10973;46.706;12.340;2023-12-22T07:01:28;2.30;;;2.20;;
21621;SDS011;10973;46.706;12.340;2023-12-22T07:04:00;1.60;;;1.60;;
21621;SDS011;10973;46.706;12.340;2023-12-22T07:06:31;0.90;;;0.90;;
21621;SDS011;10973;46.706;12.340;2023-12-22T07:11:50;1.97;;;1.83;;
21621;SDS011;10973;46.706;12.340;2023-12-22T07:14:18;1.40;;;1.30;;
21621;SDS011;10973;46.706;12.340;2023-12-22T07:16:46;2.30;;;2.20;;
21621;SDS011;10973;46.706;12.340;2023-12-22T07:19:14;1.60;;;1.50;;
21621;SDS011;10973;46.706;12.340;2023-12-22T07:21:42;2.17;;;2.07;;
21621;SDS011;10973;46.706;12.340;2023-12-22T07:24:13;1.47;;;1.37;;
21621;SDS011;10973;46.706;12.340;2023-12-22T07:26:42;1.00;;;1.00;;
21621;SDS011;10973;46.706;12.340;2023-12-22T07:29:09;1.20;;;1.20;;
21621;SDS011;10973;46.706;12.340;2023-12-22T07:31:37;1.40;;;1.40;;
21621;SDS011;10973;46.706;12.340;2023-12-22T07:34:04;2.03;;;1.00;;
21621;SDS011;10973;46.706;12.340;2023-12-22T07:36:35;1.10;;;1.10;;
21621;SDS011;10973;46.706;12.340;2023-12-22T07:39:13;1.00;;;1.00;;
21621;SDS011;10973;46.706;12.340;2023-12-22T07:41:43;1.07;;;1.00;;
21621;SDS011;10973;46.706;12.340;2023-12-22T07:44:11;1.80;;;1.70;;
21621;SDS011;10973;46.706;12.340;2023-12-22T07:46:38;2.67;;;2.10;;
21621;SDS011;10973;46.706;12.340;2023-12-22T07:49:08;1.53;;;1.30;;
21621;SDS011;10973;46.706;12.340;2023-12-22T07:51:36;1.83;;;1.70;;
21621;SDS011;10973;46.706;12.340;2023-12-22T07:54:06;1.67;;;1.57;;
21621;SDS011;10973;46.706;12.340;2023-12-22T07:56:34;1.20;;;1.10;;
21621;SDS011;10973;46.706;12.340;2023-12-22T07:59:02;2.40;;;1.20;;
21621;SDS011;10973;46.706;12.340;2023-12-22T08:01:49;1.40;;;1.30;;
21621;SDS011;10973;46.706;12.340;2023-12-22T08:04:16;3.90;;;1.50;;
21621;SDS011;10973;46.706;12.340;2023-12-22T08:06:44;1.10;;;1.10;;
21621;SDS011;10973;46.706;12.340;2023-12-22T08:09:11;1.20;;;1.20;;
21621;SDS011;10973;46.706;12.340;2023-12-22T08:11:39;1.23;;;1.23;;
21621;SDS011;10973;46.706;12.340;2023-12-22T08:14:06;1.47;;;1.37;;
21621;SDS011;10973;46.706;12.340;2023-12-22T08:16:34;1.10;;;1.10;;
21621;SDS011;10973;46.706;12.340;2023-12-22T08:19:02;2.00;;;1.40;;
21621;SDS011;10973;46.706;12.340;2023-12-22T08:21:29;2.27;;;2.07;;
21621;SDS011;10973;46.706;12.340;2023-12-22T08:24:09;1.50;;;1.50;;
21621;SDS011;10973;46.706;12.340;2023-12-22T08:26:44;2.33;;;2.23;;
21621;SDS011;10973;46.706;12.340;2023-12-22T08:29:12;1.70;;;1.70;;
21621;SDS011;10973;46.706;12.340;2023-12-22T08:31:39;2.40;;;2.20;;
21621;SDS011;10973;46.706;12.340;2023-12-22T08:34:07;1.20;;;1.20;;
21621;SDS011;10973;46.706;12.340;2023-12-22T08:36:34;1.50;;;1.50;;
21621;SDS011;10973;46.706;12.340;2023-12-22T08:39:03;2.00;;;1.57;;
21621;SDS011;10973;46.706;12.340;2023-12-22T08:41:31;1.67;;;1.57;;
21621;SDS011;10973;46.706;12.340;2023-12-22T08:43:59;1.60;;;1.50;;
21621;SDS011;10973;46.706;12.340;2023-12-22T08:46:27;1.23;;;1.20;;
21621;SDS011;10973;46.706;12.340;2023-12-22T08:48:54;1.10;;;1.10;;
21621;SDS011;10973;46.706;12.340;2023-12-22T08:51:22;1.33;;;1.10;;
21621;SDS011;10973;46.706;12.340;2023-12-22T08:53:50;1.43;;;1.30;;
21621;SDS011;10973;46.706;12.340;2023-12-22T08:56:17;1.10;;;1.10;;
21621;SDS011;10973;46.706;12.340;2023-12-22T08:58:45;2.03;;;1.13;;
21621;SDS011;10973;46.706;12.340;2023-12-22T09:01:16;1.70;;;1.60;;
21621;SDS011;10973;46.706;12.340;2023-12-22T09:03:45;4.30;;;2.50;;
21621;SDS011;10973;46.706;12.340;2023-12-22T09:06:20;1.83;;;1.73;;
21621;SDS011;10973;46.706;12.340;2023-12-22T09:08:49;1.53;;;1.53;;
21621;SDS011;10973;46.706;12.340;2023-12-22T09:11:17;0.90;;;0.90;;
21621;SDS011;10973;46.706;12.340;2023-12-22T09:13:46;2.30;;;1.30;;
21621;SDS011;10973;46.706;12.340;2023-12-22T09:16:19;1.17;;;1.10;;
21621;SDS011;10973;46.706;12.340;2023-12-22T09:18:51;1.50;;;1.50;;
21621;SDS011;10973;46.706;12.340;2023-12-22T09:21:19;2.97;;;1.80;;
21621;SDS011;10973;46.706;12.340;2023-12-22T09:23:47;1.30;;;1.30;;
21621;SDS011;10973;46.706;12.340;2023-12-22T09:26:14;1.60;;;1.53;;
21621;SDS011;10973;46.706;12.340;2023-12-22T09:28:44;1.57;;;1.30;;
21621;SDS011;10973;46.706;12.340;2023-12-22T09:31:12;1.33;;;1.27;;
21621;SDS011;10973;46.706;12.340;2023-12-22T09:33:40;1.53;;;1.43;;
21621;SDS011;10973;46.706;12.340;2023-12-22T09:36:09;1.13;;;1.13;;
21621;SDS011;10973;46.706;12.340;2023-12-22T09:38:36;1.43;;;1.33;;
21621;SDS011;10973;46.706;12.340;2023-12-22T09:41:04;1.90;;;1.80;;
21621;SDS011;10973;46.706;12.340;2023-12-22T09:43:32;3.00;;;1.37;;
21621;SDS011;10973;46.706;12.340;2023-12-22T09:46:02;1.30;;;1.30;;
21621;SDS011;10973;46.706;12.340;2023-12-22T09:48:31;1.30;;;1.20;;
21621;SDS011;10973;46.706;12.340;2023-12-22T09:51:03;1.73;;;1.03;;
21621;SDS011;10973;46.706;12.340;2023-12-22T09:53:32;2.77;;;1.20;;
21621;SDS011;10973;46.706;12.340;2023-12-22T09:56:02;1.10;;;1.10;;
21621;SDS011;10973;46.706;12.340;2023-12-22T09:58:30;1.10;;;1.10;;
21621;SDS011;10973;46.706;12.340;2023-12-22T10:01:04;2.77;;;1.20;;
21621;SDS011;10973;46.706;12.340;2023-12-22T10:03:33;1.80;;;1.70;;
21621;SDS011;10973;46.706;12.340;2023-12-22T10:06:01;2.67;;;2.47;;
21621;SDS011;10973;46.706;12.340;2023-12-22T10:08:29;4.57;;;2.73;;
21621;SDS011;10973;46.706;12.340;2023-12-22T10:10:58;7.03;;;5.07;;
21621;SDS011;10973;46.706;12.340;2023-12-22T10:13:26;3.70;;;3.30;;
21621;SDS011;10973;46.706;12.340;2023-12-22T10:15:54;2.10;;;2.00;;
21621;SDS011;10973;46.706;12.340;2023-12-22T10:18:22;1.30;;;1.30;;
21621;SDS011;10973;46.706;12.340;2023-12-22T10:20:51;1.00;;;1.00;;
21621;SDS011;10973;46.706;12.340;2023-12-22T10:23:19;2.37;;;1.10;;
21621;SDS011;10973;46.706;12.340;2023-12-22T10:25:46;1.10;;;1.10;;
21621;SDS011;10973;46.706;12.340;2023-12-22T10:28:14;1.13;;;1.13;;
21621;SDS011;10973;46.706;12.340;2023-12-22T10:30:41;1.00;;;1.00;;
21621;SDS011;10973;46.706;12.340;2023-12-22T10:33:12;1.20;;;1.20;;
21621;SDS011;10973;46.706;12.340;2023-12-22T10:35:41;3.53;;;2.03;;
21621;SDS011;10973;46.706;12.340;2023-12-22T10:38:08;2.60;;;2.40;;
21621;SDS011;10973;46.706;12.340;2023-12-22T10:40:37;2.27;;;2.10;;
21621;SDS011;10973;46.706;12.340;2023-12-22T10:43:04;1.93;;;1.83;;
21621;SDS011;10973;46.706;12.340;2023-12-22T10:45:32;1.77;;;1.60;;
21621;SDS011;10973;46.706;12.340;2023-12-22T10:48:00;2.23;;;1.83;;
21621;SDS011;10973;46.706;12.340;2023-12-22T10:50:28;1.77;;;1.67;;
21621;SDS011;10973;46.706;12.340;2023-12-22T10:52:55;1.27;;;1.27;;
21621;SDS011;10973;46.706;12.340;2023-12-22T10:55:23;1.83;;;1.73;;
21621;SDS011;10973;46.706;12.340;2023-12-22T10:57:51;4.83;;;3.20;;
21621;SDS011;10973;46.706;12.340;2023-12-22T11:00:19;2.60;;;2.10;;
21621;SDS011;10973;46.706;12.340;2023-12-22T11:02:48;5.07;;;4.63;;
21621;SDS011;10973;46.706;12.340;2023-12-22T11:05:26;1.30;;;1.30;;
21621;SDS011;10973;46.706;12.340;2023-12-22T11:07:56;1.70;;;1.60;;
21621;SDS011;10973;46.706;12.340;2023-12-22T11:10:30;4.73;;;4.07;;
21621;SDS011;10973;46.706;12.340;2023-12-22T11:13:00;2.80;;;2.60;;
21621;SDS011;10973;46.706;12.340;2023-12-22T11:15:29;2.67;;;2.47;;
21621;SDS011;10973;46.706;12.340;2023-12-22T11:17:59;2.53;;;2.33;;
21621;SDS011;10973;46.706;12.340;2023-12-22T11:20:31;5.20;;;4.20;;
21621;SDS011;10973;46.706;12.340;2023-12-22T11:23:01;2.60;;;2.40;;
21621;SDS011;10973;46.706;12.340;2023-12-22T11:25:31;1.97;;;1.87;;
21621;SDS011;10973;46.706;12.340;2023-12-22T11:28:00;1.73;;;1.63;;
21621;SDS011;10973;46.706;12.340;2023-12-22T11:30:30;3.00;;;2.70;;
21621;SDS011;10973;46.706;12.340;2023-12-22T11:32:58;3.13;;;2.20;;
21621;SDS011;10973;46.706;12.340;2023-12-22T11:35:28;3.17;;;2.70;;
21621;SDS011;10973;46.706;12.340;2023-12-22T11:38:00;3.70;;;2.47;;
21621;SDS011;10973;46.706;12.340;2023-12-22T11:40:28;3.10;;;1.93;;
21621;SDS011;10973;46.706;12.340;2023-12-22T11:42:56;2.07;;;1.97;;
21621;SDS011;10973;46.706;12.340;2023-12-22T11:45:26;4.73;;;4.23;;
21621;SDS011;10973;46.706;12.340;2023-12-22T11:48:04;7.93;;;6.23;;
21621;SDS011;10973;46.706;12.340;2023-12-22T11:50:35;4.87;;;3.70;;
21621;SDS011;10973;46.706;12.340;2023-12-22T11:53:25;5.50;;;4.90;;
21621;SDS011;10973;46.706;12.340;2023-12-22T11:58:38;5.73;;;5.10;;
21621;SDS011;10973;46.706;12.340;2023-12-22T12:01:12;11.47;;;8.57;;
21621;SDS011;10973;46.706;12.340;2023-12-22T12:03:41;2.07;;;1.97;;
21621;SDS011;10973;46.706;12.340;2023-12-22T12:06:15;1.43;;;1.37;;
21621;SDS011;10973;46.706;12.340;2023-12-22T12:09:01;2.00;;;1.90;;
21621;SDS011;10973;46.706;12.340;2023-12-22T12:14:22;1.40;;;1.40;;
21621;SDS011;10973;46.706;12.340;2023-12-22T12:17:03;2.20;;;2.10;;
21621;SDS011;10973;46.706;12.340;2023-12-22T12:19:35;2.87;;;2.67;;
21621;SDS011;10973;46.706;12.340;2023-12-22T12:22:05;2.67;;;2.47;;
21621;SDS011;10973;46.706;12.340;2023-12-22T12:24:33;1.80;;;1.70;;
21621;SDS011;10973;46.706;12.340;2023-12-22T12:27:03;1.53;;;1.50;;
21621;SDS011;10973;46.706;12.340;2023-12-22T12:29:34;1.67;;;1.57;;
21621;SDS011;10973;46.706;12.340;2023-12-22T12:32:05;1.80;;;1.70;;
21621;SDS011;10973;46.706;12.340;2023-12-22T12:34:33;1.33;;;1.23;;
21621;SDS011;10973;46.706;12.340;2023-12-22T12:37:01;1.40;;;1.40;;
21621;SDS011;10973;46.706;12.340;2023-12-22T12:39:29;1.80;;;1.37;;
21621;SDS011;10973;46.706;12.340;2023-12-22T12:42:01;1.17;;;1.10;;
21621;SDS011;10973;46.706;12.340;2023-12-22T12:44:29;1.10;;;1.10;;
21621;SDS011;10973;46.706;12.340;2023-12-22T12:46:57;1.27;;;1.27;;
21621;SDS011;10973;46.706;12.340;2023-12-22T12:49:25;1.23;;;1.23;;
21621;SDS011;10973;46.706;12.340;2023-12-22T12:51:53;1.37;;;1.37;;
21621;SDS011;10973;46.706;12.340;2023-12-22T12:54:20;1.40;;;1.40;;
21621;SDS011;10973;46.706;12.340;2023-12-22T12:56:48;1.20;;;1.20;;
21621;SDS011;10973;46.706;12.340;2023-12-22T12:59:16;1.40;;;1.30;;
21621;SDS011;10973;46.706;12.340;2023-12-22T13:01:45;1.40;;;1.40;;
21621;SDS011;10973;46.706;12.340;2023-12-22T13:04:15;1.40;;;1.30;;
21621;SDS011;10973;46.706;12.340;2023-12-22T13:06:43;1.40;;;1.30;;
21621;SDS011;10973;46.706;12.340;2023-12-22T13:09:12;1.57;;;1.50;;
21621;SDS011;10973;46.706;12.340;2023-12-22T13:11:40;2.50;;;1.47;;
21621;SDS011;10973;46.706;12.340;2023-12-22T13:14:10;5.73;;;4.57;;
21621;SDS011;10973;46.706;12.340;2023-12-22T13:16:37;3.60;;;3.30;;
21621;SDS011;10973;46.706;12.340;2023-12-22T13:19:06;2.67;;;2.47;;
21621;SDS011;10973;46.706;12.340;2023-12-22T13:21:34;3.53;;;2.33;;
21621;SDS011;10973;46.706;12.340;2023-12-22T13:24:12;1.70;;;1.60;;
21621;SDS011;10973;46.706;12.340;2023-12-22T13:26:44;2.20;;;2.10;;
21621;SDS011;10973;46.706;12.340;2023-12-22T13:29:12;2.00;;;1.90;;
21621;SDS011;10973;46.706;12.340;2023-12-22T13:31:40;4.13;;;2.70;;
21621;SDS011;10973;46.706;12.340;2023-12-22T13:34:09;2.23;;;2.13;;
21621;SDS011;10973;46.706;12.340;2023-12-22T13:36:38;2.70;;;2.30;;
21621;SDS011;10973;46.706;12.340;2023-12-22T13:39:08;2.03;;;1.97;;
21621;SDS011;10973;46.706;12.340;2023-12-22T13:41:40;1.70;;;1.60;;
21621;SDS011;10973;46.706;12.340;2023-12-22T13:44:09;0.87;;;0.87;;
21621;SDS011;10973;46.706;12.340;2023-12-22T13:46:36;1.23;;;1.17;;
21621;SDS011;10973;46.706;12.340;2023-12-22T13:49:05;1.23;;;1.20;;
21621;SDS011;10973;46.706;12.340;2023-12-22T13:51:41;1.17;;;1.17;;
21621;SDS011;10973;46.706;12.340;2023-12-22T13:54:12;1.30;;;1.30;;
21621;SDS011;10973;46.706;12.340;2023-12-22T13:56:40;1.53;;;1.43;;
21621;SDS011;10973;46.706;12.340;2023-12-22T13:59:11;1.60;;;1.50;;
21621;SDS011;10973;46.706;12.340;2023-12-22T14:01:39;1.43;;;1.43;;
21621;SDS011;10973;46.706;12.340;2023-12-22T14:04:07;1.90;;;1.50;;
21621;SDS011;10973;46.706;12.340;2023-12-22T14:06:35;4.30;;;3.90;;
21621;SDS011;10973;46.706;12.340;2023-12-22T14:09:05;1.60;;;1.50;;
21621;SDS011;10973;46.706;12.340;2023-12-22T14:11:33;3.13;;;1.50;;
21621;SDS011;10973;46.706;12.340;2023-12-22T14:14:01;2.13;;;1.80;;
21621;SDS011;10973;46.706;12.340;2023-12-22T14:16:29;1.20;;;1.20;;
21621;SDS011;10973;46.706;12.340;2023-12-22T14:18:56;1.17;;;1.17;;
21621;SDS011;10973;46.706;12.340;2023-12-22T14:21:25;2.40;;;1.60;;
21621;SDS011;10973;46.706;12.340;2023-12-22T14:23:52;1.10;;;1.10;;
21621;SDS011;10973;46.706;12.340;2023-12-22T14:26:20;2.27;;;1.40;;
21621;SDS011;10973;46.706;12.340;2023-12-22T14:28:49;0.93;;;0.93;;
21621;SDS011;10973;46.706;12.340;2023-12-22T14:31:16;1.20;;;1.10;;
21621;SDS011;10973;46.706;12.340;2023-12-22T14:33:44;1.23;;;1.00;;
21621;SDS011;10973;46.706;12.340;2023-12-22T14:36:12;0.90;;;0.90;;
21621;SDS011;10973;46.706;12.340;2023-12-22T14:38:40;1.10;;;1.10;;
21621;SDS011;10973;46.706;12.340;2023-12-22T14:41:08;1.00;;;1.00;;
21621;SDS011;10973;46.706;12.340;2023-12-22T14:43:38;0.90;;;0.90;;
21621;SDS011;10973;46.706;12.340;2023-12-22T14:46:06;1.60;;;0.90;;
21621;SDS011;10973;46.706;12.340;2023-12-22T14:48:33;0.90;;;0.90;;
21621;SDS011;10973;46.706;12.340;2023-12-22T14:51:01;1.57;;;1.17;;
21621;SDS011;10973;46.706;12.340;2023-12-22T14:53:29;0.97;;;0.97;;